Time;durP1;ratioP1;P1;durP2;ratioP2;P2;SDS_P1;SDS_P2;PMS_P1;PMS_P2;Temp;Humidity;BMP_temperature;BMP_pressure;BME280_temperature;BME280_humidity;BME280_pressure;Samples;Min_cycle;Max_cycle;Signal;HPM_P1;HPM_P2
2023/12/06 00:04:05;;;;;;;16.23;14.48;;;;;;;;;;10029522;28;20372;-73
2023/12/06 00:08:57;;;;;;;11.77;10.05;;;;;;;;;;10027368;28;20104;-73
2023/12/06 00:13:49;;;;;;;9.13;7.57;;;;;;;;;;10029402;28;20117;-73
2023/12/06 00:18:43;;;;;;;9.43;8.15;;;;;;;;;;10028627;28;20049;-73
2023/12/06 00:23:36;;;;;;;7.95;6.70;;;;;;;;;;10028325;28;20042;-73
2023/12/06 00:28:27;;;;;;;8.68;7.18;;;;;;;;;;10027944;28;20092;-73
2023/12/06 00:33:19;;;;;;;7.75;6.97;;;;;;;;;;10028608;28;20041;-73
2023/12/06 00:38:13;;;;;;;7.28;6.30;;;;;;;;;;10026573;28;20041;-73
2023/12/06 00:43:05;;;;;;;7.63;6.93;;;;;;;;;;10029133;28;20420;-72
2023/12/06 00:47:57;;;;;;;6.85;6.03;;;;;;;;;;10027414;28;20115;-73
2023/12/06 00:52:49;;;;;;;6.78;6.15;;;;;;;;;;10027812;28;20050;-73
2023/12/06 00:57:41;;;;;;;6.55;5.95;;;;;;;;;;10026012;28;20093;-73
2023/12/06 01:02:33;;;;;;;18.33;14.27;;;;;;;;;;10026641;28;20057;-73
2023/12/06 01:07:25;;;;;;;20.10;14.13;;;;;;;;;;10026488;28;20065;-73
2023/12/06 01:12:17;;;;;;;14.48;11.05;;;;;;;;;;10026529;28;20049;-73
2023/12/06 01:17:09;;;;;;;7.80;6.47;;;;;;;;;;10025260;28;20436;-73
2023/12/06 01:22:01;;;;;;;5.00;4.60;;;;;;;;;;10024577;28;20534;-73
2023/12/06 01:26:53;;;;;;;4.63;3.65;;;;;;;;;;10026293;28;20060;-73
2023/12/06 01:31:45;;;;;;;3.78;3.47;;;;;;;;;;10025463;28;20141;-73
2023/12/06 01:36:37;;;;;;;4.07;3.70;;;;;;;;;;10024826;28;20127;-73
2023/12/06 01:41:29;;;;;;;3.83;3.47;;;;;;;;;;10026728;28;20045;-73
2023/12/06 01:46:21;;;;;;;3.05;2.85;;;;;;;;;;10024480;28;20046;-73
2023/12/06 01:51:13;;;;;;;3.17;2.88;;;;;;;;;;10025751;28;20077;-73
2023/12/06 01:56:06;;;;;;;3.90;3.60;;;;;;;;;;10024846;28;20069;-73
2023/12/06 02:00:59;;;;;;;3.45;3.15;;;;;;;;;;10024906;28;20432;-73
2023/12/06 02:05:52;;;;;;;3.38;3.08;;;;;;;;;;10023634;28;20351;-73
2023/12/06 02:10:44;;;;;;;3.53;3.22;;;;;;;;;;10013791;28;20066;-73
2023/12/06 02:15:36;;;;;;;3.45;3.20;;;;;;;;;;10024892;28;20050;-73
2023/12/06 02:20:28;;;;;;;2.95;2.75;;;;;;;;;;10022431;28;20117;-73
2023/12/06 02:25:20;;;;;;;3.72;3.42;;;;;;;;;;10024102;28;20046;-73
2023/12/06 02:30:12;;;;;;;3.80;3.50;;;;;;;;;;10023537;28;20423;-73
2023/12/06 02:35:35;;;;;;;3.50;3.20;;;;;;;;;;10021975;28;20050;-72
2023/12/06 02:40:29;;;;;;;3.65;3.35;;;;;;;;;;10005276;28;20049;-73
2023/12/06 02:45:21;;;;;;;3.90;3.60;;;;;;;;;;10021895;28;20096;-73
2023/12/06 02:50:12;;;;;;;4.20;3.80;;;;;;;;;;10023597;28;20048;-73
2023/12/06 02:55:05;;;;;;;9.07;5.00;;;;;;;;;;10015835;28;20061;-73
2023/12/06 02:59:58;;;;;;;4.35;3.95;;;;;;;;;;10022961;28;20044;-73
2023/12/06 03:04:49;;;;;;;4.90;4.50;;;;;;;;;;10023918;28;20042;-73
2023/12/06 03:09:41;;;;;;;5.35;4.85;;;;;;;;;;10021951;28;20384;-73
2023/12/06 03:14:33;;;;;;;6.85;6.15;;;;;;;;;;10021968;28;20045;-73
2023/12/06 03:19:25;;;;;;;7.82;7.03;;;;;;;;;;10014783;28;20125;-73
2023/12/06 03:24:17;;;;;;;8.75;7.00;;;;;;;;;;10019034;28;20052;-73
2023/12/06 03:29:09;;;;;;;9.85;7.88;;;;;;;;;;10014879;28;20380;-73
2023/12/06 03:34:01;;;;;;;7.57;6.60;;;;;;;;;;10024804;28;20108;-73
2023/12/06 03:38:53;;;;;;;6.57;5.75;;;;;;;;;;10021513;28;20076;-72
2023/12/06 03:43:45;;;;;;;5.70;5.03;;;;;;;;;;10023899;28;20088;-73
2023/12/06 03:48:53;;;;;;;6.28;5.68;;;;;;;;;;10028835;28;20053;-73
2023/12/06 03:53:45;;;;;;;6.78;6.18;;;;;;;;;;10029320;28;20049;-73
2023/12/06 03:58:38;;;;;;;6.25;5.65;;;;;;;;;;10029561;28;20465;-73
2023/12/06 04:03:29;;;;;;;7.18;6.40;;;;;;;;;;10029636;28;20132;-73
2023/12/06 04:08:21;;;;;;;7.00;6.38;;;;;;;;;;10029314;28;20054;-73
2023/12/06 04:13:13;;;;;;;6.60;5.97;;;;;;;;;;10028738;28;20507;-73
2023/12/06 04:18:05;;;;;;;5.85;4.90;;;;;;;;;;10027147;28;20089;-73
2023/12/06 04:22:57;;;;;;;6.05;5.45;;;;;;;;;;10028254;28;20060;-73
2023/12/06 04:27:49;;;;;;;5.82;5.22;;;;;;;;;;10028509;28;20472;-73
2023/12/06 04:32:41;;;;;;;4.28;3.90;;;;;;;;;;10028292;28;20137;-73
2023/12/06 04:37:33;;;;;;;3.83;3.53;;;;;;;;;;10028107;28;20042;-73
2023/12/06 04:42:25;;;;;;;4.28;3.88;;;;;;;;;;10027696;28;20499;-73
2023/12/06 04:47:17;;;;;;;4.30;3.85;;;;;;;;;;10027854;28;20048;-73
2023/12/06 04:52:09;;;;;;;3.88;3.58;;;;;;;;;;10025958;28;20065;-73
2023/12/06 04:57:01;;;;;;;4.60;4.20;;;;;;;;;;10019076;28;20042;-73
2023/12/06 05:01:53;;;;;;;4.60;4.20;;;;;;;;;;10023416;28;20065;-73
2023/12/06 05:06:45;;;;;;;5.30;4.38;;;;;;;;;;10029374;28;20054;-73
2023/12/06 05:11:38;;;;;;;5.25;4.75;;;;;;;;;;10029092;28;20057;-73
2023/12/06 05:16:30;;;;;;;5.65;5.13;;;;;;;;;;10030020;28;20465;-73
2023/12/06 05:21:22;;;;;;;4.80;4.40;;;;;;;;;;10029869;28;20054;-74
2023/12/06 05:26:14;;;;;;;5.82;5.07;;;;;;;;;;10029482;28;20046;-73
2023/12/06 05:31:09;;;;;;;6.47;5.88;;;;;;;;;;10028853;28;20127;-73
2023/12/06 05:36:01;;;;;;;6.15;4.95;;;;;;;;;;10026425;28;20042;-73
2023/12/06 05:40:55;;;;;;;6.38;5.78;;;;;;;;;;10025018;28;20050;-73
2023/12/06 05:45:47;;;;;;;88.13;73.38;;;;;;;;;;10025461;28;20069;-73
2023/12/06 05:50:39;;;;;;;25.73;22.35;;;;;;;;;;10024764;28;20045;-73
2023/12/06 05:55:31;;;;;;;53.13;46.17;;;;;;;;;;10025136;28;20053;-73
2023/12/06 06:00:24;;;;;;;67.07;50.50;;;;;;;;;;10024444;28;20053;-72
2023/12/06 06:05:18;;;;;;;40.67;28.40;;;;;;;;;;10024702;28;20038;-72
2023/12/06 06:10:10;;;;;;;21.27;18.92;;;;;;;;;;10024256;28;20068;-73
2023/12/06 06:15:02;;;;;;;33.17;27.00;;;;;;;;;;10024333;28;20070;-74
2023/12/06 06:19:54;;;;;;;20.77;15.55;;;;;;;;;;10022178;28;20038;-74
2023/12/06 06:24:46;;;;;;;26.80;19.65;;;;;;;;;;10020708;28;20077;-73
2023/12/06 06:29:38;;;;;;;7.35;6.72;;;;;;;;;;10023214;28;20042;-74
2023/12/06 06:34:30;;;;;;;7.28;5.45;;;;;;;;;;10021759;28;20041;-74
2023/12/06 06:39:22;;;;;;;6.63;5.95;;;;;;;;;;10022450;28;20515;-74
2023/12/06 06:44:14;;;;;;;6.75;5.05;;;;;;;;;;10024016;28;20045;-73
2023/12/06 06:49:06;;;;;;;6.22;5.07;;;;;;;;;;10019965;28;20049;-74
2023/12/06 06:53:58;;;;;;;5.72;3.80;;;;;;;;;;10021714;28;20118;-74
2023/12/06 06:58:51;;;;;;;6.75;4.32;;;;;;;;;;10020126;28;20404;-73
2023/12/06 07:03:43;;;;;;;9.32;7.30;;;;;;;;;;10021409;28;20042;-74
2023/12/06 07:08:35;;;;;;;7.93;6.85;;;;;;;;;;10020155;28;20061;-74
2023/12/06 07:13:27;;;;;;;35.58;25.48;;;;;;;;;;10021399;28;20069;-74
2023/12/06 07:18:19;;;;;;;18.48;16.63;;;;;;;;;;10021823;28;20038;-74
2023/12/06 07:23:11;;;;;;;28.77;21.83;;;;;;;;;;10026829;28;20065;-75
2023/12/06 07:28:03;;;;;;;24.00;15.55;;;;;;;;;;10030542;28;20049;-75
2023/12/06 07:32:55;;;;;;;10.60;5.03;;;;;;;;;;10029371;28;20419;-75
2023/12/06 07:37:47;;;;;;;33.50;21.00;;;;;;;;;;10027239;28;20071;-75
2023/12/06 07:42:38;;;;;;;7.57;5.97;;;;;;;;;;10024827;28;20038;-75
2023/12/06 07:47:30;;;;;;;84.97;43.35;;;;;;;;;;10023156;28;20066;-75
2023/12/06 07:52:22;;;;;;;10.75;6.50;;;;;;;;;;10024911;28;20077;-75
2023/12/06 07:57:14;;;;;;;4.22;3.83;;;;;;;;;;10028259;28;20053;-75
2023/12/06 08:02:06;;;;;;;3.15;2.75;;;;;;;;;;10029310;28;20486;-75
2023/12/06 08:06:58;;;;;;;4.30;3.90;;;;;;;;;;10026650;28;20046;-75
2023/12/06 08:11:50;;;;;;;5.43;4.80;;;;;;;;;;10028406;28;20145;-77
2023/12/06 08:16:42;;;;;;;16.17;14.07;;;;;;;;;;10031149;28;20042;-76
2023/12/06 08:21:33;;;;;;;9.95;8.55;;;;;;;;;;10026451;28;20129;-76
2023/12/06 08:26:25;;;;;;;11.70;10.40;;;;;;;;;;10026045;28;20448;-76
2023/12/06 08:31:17;;;;;;;11.05;9.27;;;;;;;;;;10029055;28;20045;-77
2023/12/06 08:36:10;;;;;;;11.75;9.90;;;;;;;;;;10027160;28;20368;-76
2023/12/06 08:41:02;;;;;;;14.60;11.93;;;;;;;;;;10026290;28;20038;-77
2023/12/06 08:45:54;;;;;;;11.55;9.63;;;;;;;;;;10026793;28;20049;-77
2023/12/06 08:50:47;;;;;;;12.70;10.90;;;;;;;;;;10025593;28;20100;-76
2023/12/06 08:55:38;;;;;;;14.25;11.73;;;;;;;;;;10026410;28;20045;-76
2023/12/06 09:00:30;;;;;;;12.82;11.40;;;;;;;;;;10025915;28;20037;-76
2023/12/06 09:05:22;;;;;;;15.85;12.02;;;;;;;;;;10026232;28;20049;-77
2023/12/06 09:10:14;;;;;;;19.77;16.15;;;;;;;;;;10025028;28;20060;-77
2023/12/06 09:15:06;;;;;;;23.30;17.48;;;;;;;;;;10025385;28;20045;-76
2023/12/06 09:19:58;;;;;;;22.60;17.10;;;;;;;;;;10024167;28;20052;-77
2023/12/06 09:24:50;;;;;;;23.63;18.20;;;;;;;;;;10023997;28;20060;-77
2023/12/06 09:29:45;;;;;;;23.60;17.67;;;;;;;;;;10021726;28;20049;-76
2023/12/06 09:34:37;;;;;;;22.40;19.60;;;;;;;;;;10020740;28;20419;-77
2023/12/06 09:39:31;;;;;;;35.22;24.33;;;;;;;;;;10021204;28;20124;-77
2023/12/06 09:44:23;;;;;;;35.30;24.48;;;;;;;;;;10020916;28;20153;-76
2023/12/06 09:49:16;;;;;;;22.67;16.42;;;;;;;;;;10022385;28;20042;-76
2023/12/06 09:54:08;;;;;;;21.52;16.55;;;;;;;;;;10018416;28;20045;-77
2023/12/06 09:58:59;;;;;;;20.15;16.85;;;;;;;;;;10020610;28;20069;-77
2023/12/06 10:03:51;;;;;;;24.95;17.00;;;;;;;;;;10020837;28;20133;-76
2023/12/06 10:08:48;;;;;;;20.55;16.60;;;;;;;;;;10020028;28;20050;-77
2023/12/06 10:13:41;;;;;;;19.80;14.68;;;;;;;;;;10018397;28;20077;-76
2023/12/06 10:18:33;;;;;;;16.58;13.90;;;;;;;;;;10019323;28;20042;-76
2023/12/06 10:23:29;;;;;;;15.75;12.90;;;;;;;;;;10019504;28;20042;-77
2023/12/06 10:28:22;;;;;;;18.60;14.70;;;;;;;;;;10018232;28;20056;-76
2023/12/06 10:33:16;;;;;;;18.75;14.48;;;;;;;;;;10019368;28;20141;-77
2023/12/06 10:38:08;;;;;;;14.40;12.32;;;;;;;;;;10017938;28;20077;-76
2023/12/06 10:43:07;;;;;;;12.20;10.90;;;;;;;;;;10017575;28;20385;-76
2023/12/06 10:48:00;;;;;;;12.60;11.10;;;;;;;;;;10010766;28;20042;-76
2023/12/06 10:52:53;;;;;;;12.45;10.30;;;;;;;;;;10017229;28;20131;-77
2023/12/06 10:57:45;;;;;;;12.32;10.55;;;;;;;;;;10017122;28;20046;-76
2023/12/06 11:02:37;;;;;;;12.57;11.27;;;;;;;;;;10018174;28;20060;-77
2023/12/06 11:07:45;;;;;;;15.32;11.85;;;;;;;;;;10017765;28;20807;-77
2023/12/06 11:12:52;;;;;;;17.98;15.07;;;;;;;;;;10018439;28;20046;-76
2023/12/06 11:18:18;;;;;;;11.77;9.32;;;;;;;;;;10016410;28;20052;-77
2023/12/06 11:23:10;;;;;;;12.07;10.77;;;;;;;;;;10010226;28;20049;-77
2023/12/06 11:28:03;;;;;;;15.73;11.25;;;;;;;;;;10022773;28;20054;-75
2023/12/06 11:32:59;;;;;;;14.50;9.07;;;;;;;;;;10019064;28;20495;-75
2023/12/06 11:37:54;;;;;;;11.43;9.43;;;;;;;;;;10017515;28;20045;-75
2023/12/06 11:43:01;;;;;;;10.55;8.75;;;;;;;;;;10010402;28;20125;-74
2023/12/06 11:47:53;;;;;;;12.98;9.38;;;;;;;;;;10020439;28;20069;-74
2023/12/06 11:52:51;;;;;;;11.82;9.75;;;;;;;;;;10020825;28;20068;-74
2023/12/06 11:58:07;;;;;;;9.55;7.72;;;;;;;;;;10021205;28;20121;-74
2023/12/06 12:03:00;;;;;;;11.20;9.13;;;;;;;;;;10012888;28;20046;-74
2023/12/06 12:07:52;;;;;;;10.88;9.15;;;;;;;;;;10023551;28;20139;-73
2023/12/06 12:12:44;;;;;;;10.55;9.45;;;;;;;;;;10026834;28;20108;-74
2023/12/06 12:17:36;;;;;;;10.27;9.05;;;;;;;;;;10028773;28;20069;-74
2023/12/06 12:22:28;;;;;;;11.02;9.30;;;;;;;;;;10026106;28;20054;-74
2023/12/06 12:27:20;;;;;;;8.43;7.30;;;;;;;;;;10028452;28;20084;-74
2023/12/06 12:32:13;;;;;;;8.43;7.55;;;;;;;;;;10025954;28;20061;-74
2023/12/06 12:37:05;;;;;;;8.93;7.90;;;;;;;;;;10026613;28;20073;-74
2023/12/06 12:41:57;;;;;;;11.32;7.18;;;;;;;;;;10019857;28;20038;-74
2023/12/06 12:46:49;;;;;;;11.88;6.35;;;;;;;;;;10015674;28;20161;-74
2023/12/06 12:51:49;;;;;;;7.97;7.18;;;;;;;;;;10026199;28;20050;-75
2023/12/06 12:56:42;;;;;;;10.00;6.30;;;;;;;;;;10025514;28;20082;-75
2023/12/06 13:01:34;;;;;;;11.25;7.30;;;;;;;;;;10025143;28;20054;-75
2023/12/06 13:06:28;;;;;;;8.25;7.32;;;;;;;;;;10022787;28;20262;-75
2023/12/06 13:11:20;;;;;;;10.98;7.35;;;;;;;;;;10022570;28;20077;-76
2023/12/06 13:16:12;;;;;;;9.98;7.22;;;;;;;;;;10016213;28;20049;-74
2023/12/06 13:21:05;;;;;;;8.55;7.53;;;;;;;;;;10024289;28;20433;-75
2023/12/06 13:25:57;;;;;;;8.70;7.30;;;;;;;;;;10019783;28;20117;-74
2023/12/06 13:30:49;;;;;;;8.38;7.07;;;;;;;;;;10022083;28;20073;-74
2023/12/06 13:35:41;;;;;;;8.30;7.22;;;;;;;;;;10022600;28;20333;-74
2023/12/06 13:40:33;;;;;;;8.20;7.35;;;;;;;;;;10024110;28;20405;-74
2023/12/06 13:45:26;;;;;;;11.88;8.65;;;;;;;;;;10024128;28;20380;-74
2023/12/06 13:50:19;;;;;;;10.77;7.57;;;;;;;;;;10024894;28;20057;-74
2023/12/06 13:55:11;;;;;;;10.65;8.73;;;;;;;;;;10022928;28;20311;-74
2023/12/06 14:00:05;;;;;;;7.97;7.15;;;;;;;;;;10024353;28;20129;-74
2023/12/06 14:05:03;;;;;;;;;;;;;;;;;;10024682;28;20056;-74
2023/12/06 14:09:55;;;;;;;9.60;7.88;;;;;;;;;;10023722;28;19922;-74
2023/12/06 14:14:47;;;;;;;10.13;8.43;;;;;;;;;;10023759;28;20050;-73
2023/12/06 14:19:41;;;;;;;12.43;8.60;;;;;;;;;;10013451;28;20157;-71
2023/12/06 14:24:33;;;;;;;11.55;9.30;;;;;;;;;;10003620;28;20045;-73
2023/12/06 14:29:25;;;;;;;12.02;9.90;;;;;;;;;;10005697;28;20042;-74
2023/12/06 14:34:17;;;;;;;17.45;12.30;;;;;;;;;;9999165;28;20060;-72
2023/12/06 14:39:10;;;;;;;11.23;8.93;;;;;;;;;;10022976;28;20064;-72
2023/12/06 14:44:04;;;;;;;87.90;59.85;;;;;;;;;;10037882;28;20041;-74
2023/12/06 14:48:56;;;;;;;144.40;101.38;;;;;;;;;;10025927;28;20050;-72
2023/12/06 14:53:48;;;;;;;481.80;350.95;;;;;;;;;;10019785;28;20426;-74
2023/12/06 14:58:39;;;;;;;344.88;245.20;;;;;;;;;;10025475;28;20073;-74
2023/12/06 15:03:31;;;;;;;241.38;164.18;;;;;;;;;;10041036;28;20046;-74
2023/12/06 15:08:23;;;;;;;207.32;140.32;;;;;;;;;;10036069;28;20050;-74
2023/12/06 15:13:15;;;;;;;191.07;122.07;;;;;;;;;;10023428;28;20357;-74
2023/12/06 15:18:07;;;;;;;15.75;14.10;;;;;;;;;;10025234;28;20049;-74
2023/12/06 15:22:59;;;;;;;16.10;12.52;;;;;;;;;;10025419;28;20089;-74
2023/12/06 15:27:51;;;;;;;16.48;13.95;;;;;;;;;;10024670;28;20041;-75
2023/12/06 15:32:44;;;;;;;27.75;22.90;;;;;;;;;;10025116;28;20072;-74
2023/12/06 15:37:36;;;;;;;48.28;32.60;;;;;;;;;;10025272;28;20042;-73
2023/12/06 15:42:28;;;;;;;13.95;12.20;;;;;;;;;;10029001;28;20046;-74
2023/12/06 15:47:20;;;;;;;44.22;33.90;;;;;;;;;;10019750;28;20049;-73
2023/12/06 15:52:13;;;;;;;85.78;70.68;;;;;;;;;;10026802;28;20144;-73
2023/12/06 15:57:05;;;;;;;67.35;46.08;;;;;;;;;;10025164;28;20038;-73
2023/12/06 16:01:57;;;;;;;33.15;22.88;;;;;;;;;;10025386;28;20073;-73
2023/12/06 16:06:51;;;;;;;68.97;42.70;;;;;;;;;;10027944;28;20038;-74
2023/12/06 16:11:43;;;;;;;31.05;22.30;;;;;;;;;;10026830;28;20057;-74
2023/12/06 16:16:35;;;;;;;28.40;20.98;;;;;;;;;;10029941;28;20049;-74
2023/12/06 16:21:27;;;;;;;16.77;12.13;;;;;;;;;;10026630;28;20136;-74
2023/12/06 16:26:19;;;;;;;28.98;21.27;;;;;;;;;;10027409;28;20104;-73
2023/12/06 16:31:10;;;;;;;23.83;17.40;;;;;;;;;;10027532;28;20038;-74
2023/12/06 16:36:03;;;;;;;20.58;15.45;;;;;;;;;;10027974;28;20161;-73
2023/12/06 16:40:55;;;;;;;18.42;16.10;;;;;;;;;;10027148;28;20042;-73
2023/12/06 16:45:47;;;;;;;23.80;16.42;;;;;;;;;;10027084;28;20165;-74
2023/12/06 16:50:40;;;;;;;18.10;14.73;;;;;;;;;;10026950;28;20052;-74
2023/12/06 16:55:32;;;;;;;39.92;30.08;;;;;;;;;;10025390;28;20042;-73
2023/12/06 17:00:41;;;;;;;57.75;39.33;;;;;;;;;;10024976;28;20112;-74
2023/12/06 17:05:33;;;;;;;35.92;24.23;;;;;;;;;;10025510;28;20140;-74
2023/12/06 17:10:25;;;;;;;18.10;13.73;;;;;;;;;;10025726;28;20413;-74
2023/12/06 17:15:17;;;;;;;19.00;13.95;;;;;;;;;;10015739;28;20045;-74
2023/12/06 17:20:09;;;;;;;94.20;59.47;;;;;;;;;;10021718;28;20053;-74
2023/12/06 17:25:01;;;;;;;191.63;122.25;;;;;;;;;;10020327;28;20447;-74
2023/12/06 17:29:53;;;;;;;101.13;68.03;;;;;;;;;;10023874;28;20471;-74
2023/12/06 17:34:44;;;;;;;67.63;46.42;;;;;;;;;;10023844;28;20331;-74
2023/12/06 17:39:36;;;;;;;44.60;39.92;;;;;;;;;;10024388;28;20042;-74
2023/12/06 17:44:28;;;;;;;26.13;22.40;;;;;;;;;;10024621;28;20420;-74
2023/12/06 17:49:20;;;;;;;20.52;17.13;;;;;;;;;;10024570;28;20596;-74
2023/12/06 17:54:12;;;;;;;42.00;30.83;;;;;;;;;;10024718;28;20160;-74
2023/12/06 17:59:04;;;;;;;22.00;17.40;;;;;;;;;;10023891;28;20121;-74
2023/12/06 18:03:56;;;;;;;41.53;28.88;;;;;;;;;;10024073;28;20034;-75
2023/12/06 18:08:50;;;;;;;31.95;28.17;;;;;;;;;;10024221;28;20085;-75
2023/12/06 18:13:41;;;;;;;29.10;21.42;;;;;;;;;;10015905;28;20062;-75
2023/12/06 18:18:34;;;;;;;26.52;18.05;;;;;;;;;;10014359;28;20069;-74
2023/12/06 18:23:26;;;;;;;26.70;18.42;;;;;;;;;;10022903;28;20056;-74
2023/12/06 18:28:18;;;;;;;29.80;20.77;;;;;;;;;;10013394;28;20116;-74
2023/12/06 18:33:10;;;;;;;44.67;26.48;;;;;;;;;;10019836;28;20049;-73
2023/12/06 18:38:03;;;;;;;16.13;12.93;;;;;;;;;;10025788;28;20033;-73
2023/12/06 18:42:55;;;;;;;23.85;17.98;;;;;;;;;;10017483;28;20045;-73
2023/12/06 18:47:46;;;;;;;27.42;17.15;;;;;;;;;;10023440;28;20050;-72
2023/12/06 18:52:40;;;;;;;19.35;14.60;;;;;;;;;;10021146;28;20050;-72
2023/12/06 18:57:33;;;;;;;16.25;13.07;;;;;;;;;;10019653;28;20074;-72
2023/12/06 19:02:26;;;;;;;20.75;14.30;;;;;;;;;;10019443;28;20107;-73
2023/12/06 19:07:20;;;;;;;19.25;15.23;;;;;;;;;;10017634;28;20034;-72
2023/12/06 19:12:12;;;;;;;15.82;13.73;;;;;;;;;;10017472;28;20045;-71
2023/12/06 19:17:04;;;;;;;16.40;13.18;;;;;;;;;;10022471;28;20042;-73
2023/12/06 19:21:55;;;;;;;13.25;11.95;;;;;;;;;;10030146;28;20054;-73
2023/12/06 19:26:47;;;;;;;15.63;13.15;;;;;;;;;;10029627;28;20042;-73
2023/12/06 19:31:40;;;;;;;125.20;81.45;;;;;;;;;;10029599;28;20357;-74
2023/12/06 19:36:32;;;;;;;17.98;15.18;;;;;;;;;;10028865;28;20160;-74
2023/12/06 19:41:24;;;;;;;12.50;10.98;;;;;;;;;;10028393;28;20548;-76
2023/12/06 19:46:16;;;;;;;15.85;12.20;;;;;;;;;;10028561;28;20366;-76
2023/12/06 19:51:08;;;;;;;17.75;12.60;;;;;;;;;;10028649;28;20046;-76
2023/12/06 19:56:00;;;;;;;13.73;12.23;;;;;;;;;;10028619;28;20510;-74
2023/12/06 20:00:52;;;;;;;21.15;15.88;;;;;;;;;;10026660;28;20088;-74
2023/12/06 20:05:44;;;;;;;14.73;13.15;;;;;;;;;;10028351;28;20072;-74
2023/12/06 20:10:36;;;;;;;12.80;10.95;;;;;;;;;;10026755;28;20405;-74
2023/12/06 20:15:29;;;;;;;17.00;13.73;;;;;;;;;;10027916;28;20133;-74
2023/12/06 20:20:22;;;;;;;14.30;12.85;;;;;;;;;;10027046;28;20129;-74
2023/12/06 20:25:14;;;;;;;76.65;56.97;;;;;;;;;;10027466;28;20038;-74
2023/12/06 20:30:07;;;;;;;70.45;50.47;;;;;;;;;;10026413;28;20065;-73
2023/12/06 20:34:58;;;;;;;22.13;18.88;;;;;;;;;;10025724;28;20078;-74
2023/12/06 20:39:51;;;;;;;19.25;13.57;;;;;;;;;;10028028;28;20129;-73
2023/12/06 20:44:44;;;;;;;17.25;15.45;;;;;;;;;;10026609;28;20045;-74
2023/12/06 20:49:36;;;;;;;17.27;15.48;;;;;;;;;;10026296;28;20057;-74
2023/12/06 20:54:28;;;;;;;11.85;10.75;;;;;;;;;;10026823;28;20045;-74
2023/12/06 20:59:20;;;;;;;8.40;7.47;;;;;;;;;;10024488;28;20064;-74
2023/12/06 21:04:12;;;;;;;16.02;9.57;;;;;;;;;;10025934;28;20082;-74
2023/12/06 21:09:05;;;;;;;8.23;7.43;;;;;;;;;;10025877;28;20045;-74
2023/12/06 21:13:57;;;;;;;9.90;7.45;;;;;;;;;;10025546;28;20042;-74
2023/12/06 21:18:49;;;;;;;10.07;8.35;;;;;;;;;;10024904;28;20042;-74
2023/12/06 21:23:42;;;;;;;9.90;6.90;;;;;;;;;;10025094;28;20038;-74
2023/12/06 21:28:34;;;;;;;11.50;8.98;;;;;;;;;;10024866;28;20038;-74
2023/12/06 21:33:26;;;;;;;11.85;8.18;;;;;;;;;;10024825;28;20514;-74
2023/12/06 21:38:20;;;;;;;7.70;6.57;;;;;;;;;;10023628;28;20053;-74
2023/12/06 21:43:12;;;;;;;7.88;6.72;;;;;;;;;;10024005;28;20050;-74
2023/12/06 21:48:03;;;;;;;6.68;6.05;;;;;;;;;;10023243;28;20476;-73
2023/12/06 21:52:55;;;;;;;6.20;5.60;;;;;;;;;;10024442;28;20053;-74
2023/12/06 21:57:47;;;;;;;7.70;5.57;;;;;;;;;;10021988;28;20069;-72
2023/12/06 22:02:39;;;;;;;7.07;5.65;;;;;;;;;;10020405;28;20468;-73
2023/12/06 22:07:31;;;;;;;12.48;9.10;;;;;;;;;;10016088;28;20132;-72
2023/12/06 22:12:23;;;;;;;6.22;5.57;;;;;;;;;;10019563;28;20050;-73
2023/12/06 22:17:16;;;;;;;6.75;5.53;;;;;;;;;;10029625;28;20045;-72
2023/12/06 22:22:08;;;;;;;6.85;6.10;;;;;;;;;;10026259;28;20520;-72
2023/12/06 22:27:00;;;;;;;5.70;5.03;;;;;;;;;;10024342;28;20073;-72
2023/12/06 22:31:51;;;;;;;7.47;4.85;;;;;;;;;;10027117;28;20048;-71
2023/12/06 22:36:44;;;;;;;5.70;5.10;;;;;;;;;;10024938;28;20042;-72
2023/12/06 22:41:38;;;;;;;11.25;6.68;;;;;;;;;;10029000;28;20042;-71
2023/12/06 22:46:30;;;;;;;21.20;13.70;;;;;;;;;;10026246;28;20061;-71
2023/12/06 22:51:22;;;;;;;6.90;5.35;;;;;;;;;;10023247;28;20104;-72
2023/12/06 22:56:13;;;;;;;5.22;4.38;;;;;;;;;;10024203;28;20062;-72
2023/12/06 23:01:05;;;;;;;5.50;4.70;;;;;;;;;;10021750;28;20428;-72
2023/12/06 23:05:57;;;;;;;4.97;4.45;;;;;;;;;;10021988;28;20042;-71
2023/12/06 23:10:49;;;;;;;5.65;5.05;;;;;;;;;;10021323;28;20049;-72
2023/12/06 23:15:41;;;;;;;4.60;4.20;;;;;;;;;;10024536;28;20056;-72
2023/12/06 23:20:33;;;;;;;4.30;3.90;;;;;;;;;;10025766;28;20046;-71
2023/12/06 23:25:25;;;;;;;4.10;3.70;;;;;;;;;;10025026;28;20049;-71
2023/12/06 23:30:17;;;;;;;4.93;4.30;;;;;;;;;;10011887;28;20046;-72
2023/12/06 23:35:09;;;;;;;4.30;3.88;;;;;;;;;;10025169;28;20046;-72
2023/12/06 23:40:01;;;;;;;4.00;3.60;;;;;;;;;;10024707;28;20125;-72
2023/12/06 23:44:53;;;;;;;5.45;4.45;;;;;;;;;;10024970;28;20556;-72
2023/12/06 23:49:45;;;;;;;4.25;3.20;;;;;;;;;;10025262;28;20053;-71
2023/12/06 23:54:37;;;;;;;4.85;3.83;;;;;;;;;;10025392;28;20379;-71
2023/12/06 23:59:32;;;;;;;3.50;3.15;;;;;;;;;;10024747;28;20046;-72
